Armada, Nebraska
Current Conditions -  °F | °C
As of 2:55 PM on Thursday 18 Dec 2014 (Local Time) from KEAR Reporting Station
Overcast Overcast  
Wind Chill: -6°   Ceiling: 1000
Heat Index: -2°   Visibility: 7mi
Dew Point: -4°   Wind: 8mph
Humidity: 86%   Direction: 200°SSW
Pressure: 30.12"   Gusts: NA
Location:  40.9599°N, 99.3688°W
Report Text: KEAR 182055Z 20007KT 7SM OVC010 M02/M04 A3012 RMK AO1 57014
Loading
Personal Weather Stations






























Interactive Weather Map New forecast layout! Learn more

10-Day Weather Forecast

Advertisements
Track Severe Weather on mobile